sensor_id;sensor_type;location;lat;lon;timestamp;P1;durP1;ratioP1;P2;durP2;ratioP2
5553;SDS011;2800;49.528;8.666;2023-02-28T00:01:37;5.90;;;3.23;;
5553;SDS011;2800;49.528;8.666;2023-02-28T00:04:02;5.73;;;3.03;;
5553;SDS011;2800;49.528;8.666;2023-02-28T00:06:28;5.53;;;3.03;;
5553;SDS011;2800;49.528;8.666;2023-02-28T00:08:54;6.18;;;3.58;;
5553;SDS011;2800;49.528;8.666;2023-02-28T00:11:20;5.17;;;3.20;;
5553;SDS011;2800;49.528;8.666;2023-02-28T00:13:46;5.27;;;3.03;;
5553;SDS011;2800;49.528;8.666;2023-02-28T00:16:17;5.57;;;3.00;;
5553;SDS011;2800;49.528;8.666;2023-02-28T00:18:44;5.63;;;3.15;;
5553;SDS011;2800;49.528;8.666;2023-02-28T00:21:09;5.60;;;3.13;;
5553;SDS011;2800;49.528;8.666;2023-02-28T00:23:35;5.37;;;3.07;;
5553;SDS011;2800;49.528;8.666;2023-02-28T00:26:01;5.20;;;3.17;;
5553;SDS011;2800;49.528;8.666;2023-02-28T00:28:27;5.47;;;3.53;;
5553;SDS011;2800;49.528;8.666;2023-02-28T00:30:53;8.33;;;3.10;;
5553;SDS011;2800;49.528;8.666;2023-02-28T00:33:18;6.83;;;3.40;;
5553;SDS011;2800;49.528;8.666;2023-02-28T00:35:44;5.50;;;3.20;;
5553;SDS011;2800;49.528;8.666;2023-02-28T00:38:11;6.00;;;3.00;;
5553;SDS011;2800;49.528;8.666;2023-02-28T00:40:37;5.07;;;2.97;;
5553;SDS011;2800;49.528;8.666;2023-02-28T00:43:03;4.90;;;3.40;;
5553;SDS011;2800;49.528;8.666;2023-02-28T00:45:28;8.93;;;3.30;;
5553;SDS011;2800;49.528;8.666;2023-02-28T00:47:54;7.07;;;3.53;;
5553;SDS011;2800;49.528;8.666;2023-02-28T00:50:20;4.47;;;2.93;;
5553;SDS011;2800;49.528;8.666;2023-02-28T00:52:45;6.53;;;3.43;;
5553;SDS011;2800;49.528;8.666;2023-02-28T00:55:11;6.30;;;3.90;;
5553;SDS011;2800;49.528;8.666;2023-02-28T00:57:37;5.23;;;3.40;;
5553;SDS011;2800;49.528;8.666;2023-02-28T01:00:03;7.80;;;3.67;;
5553;SDS011;2800;49.528;8.666;2023-02-28T01:02:30;7.43;;;3.42;;
5553;SDS011;2800;49.528;8.666;2023-02-28T01:04:55;7.30;;;3.40;;
5553;SDS011;2800;49.528;8.666;2023-02-28T01:07:22;5.90;;;3.50;;
5553;SDS011;2800;49.528;8.666;2023-02-28T01:09:47;7.10;;;3.80;;
5553;SDS011;2800;49.528;8.666;2023-02-28T01:12:13;6.40;;;3.70;;
5553;SDS011;2800;49.528;8.666;2023-02-28T01:14:39;6.63;;;3.70;;
5553;SDS011;2800;49.528;8.666;2023-02-28T01:17:04;6.63;;;3.63;;
5553;SDS011;2800;49.528;8.666;2023-02-28T01:19:30;6.47;;;3.80;;
5553;SDS011;2800;49.528;8.666;2023-02-28T01:21:56;5.50;;;3.87;;
5553;SDS011;2800;49.528;8.666;2023-02-28T01:24:21;7.03;;;3.97;;
5553;SDS011;2800;49.528;8.666;2023-02-28T01:26:47;7.20;;;3.70;;
5553;SDS011;2800;49.528;8.666;2023-02-28T01:29:12;6.77;;;4.07;;
5553;SDS011;2800;49.528;8.666;2023-02-28T01:31:37;6.20;;;3.70;;
5553;SDS011;2800;49.528;8.666;2023-02-28T01:34:03;6.67;;;4.20;;
5553;SDS011;2800;49.528;8.666;2023-02-28T01:36:29;7.53;;;4.03;;
5553;SDS011;2800;49.528;8.666;2023-02-28T01:38:54;6.27;;;4.03;;
5553;SDS011;2800;49.528;8.666;2023-02-28T01:41:25;7.40;;;4.13;;
5553;SDS011;2800;49.528;8.666;2023-02-28T01:43:54;7.03;;;3.72;;
5553;SDS011;2800;49.528;8.666;2023-02-28T01:46:19;7.05;;;4.20;;
5553;SDS011;2800;49.528;8.666;2023-02-28T01:48:56;6.60;;;4.10;;
5553;SDS011;2800;49.528;8.666;2023-02-28T01:51:29;9.70;;;3.85;;
5553;SDS011;2800;49.528;8.666;2023-02-28T01:54:01;5.70;;;3.90;;
5553;SDS011;2800;49.528;8.666;2023-02-28T01:56:30;6.45;;;4.30;;
5553;SDS011;2800;49.528;8.666;2023-02-28T01:59:00;7.05;;;4.40;;
5553;SDS011;2800;49.528;8.666;2023-02-28T02:01:27;7.78;;;4.25;;
5553;SDS011;2800;49.528;8.666;2023-02-28T02:03:55;6.60;;;4.53;;
5553;SDS011;2800;49.528;8.666;2023-02-28T02:06:38;6.00;;;4.30;;
5553;SDS011;2800;49.528;8.666;2023-02-28T02:09:08;9.95;;;4.93;;
5553;SDS011;2800;49.528;8.666;2023-02-28T02:11:34;7.13;;;4.00;;
5553;SDS011;2800;49.528;8.666;2023-02-28T02:16:51;6.65;;;4.40;;
5553;SDS011;2800;49.528;8.666;2023-02-28T02:22:19;7.20;;;4.38;;
5553;SDS011;2800;49.528;8.666;2023-02-28T02:25:23;8.60;;;4.85;;
5553;SDS011;2800;49.528;8.666;2023-02-28T02:28:15;7.07;;;4.32;;
5553;SDS011;2800;49.528;8.666;2023-02-28T02:31:14;11.02;;;5.50;;
5553;SDS011;2800;49.528;8.666;2023-02-28T02:34:04;10.60;;;4.70;;
5553;SDS011;2800;49.528;8.666;2023-02-28T02:36:46;7.53;;;4.95;;
5553;SDS011;2800;49.528;8.666;2023-02-28T02:39:19;7.40;;;4.88;;
5553;SDS011;2800;49.528;8.666;2023-02-28T02:41:49;6.68;;;4.68;;
5553;SDS011;2800;49.528;8.666;2023-02-28T02:46:54;8.00;;;5.25;;
5553;SDS011;2800;49.528;8.666;2023-02-28T02:49:26;8.90;;;5.40;;
5553;SDS011;2800;49.528;8.666;2023-02-28T02:51:55;9.23;;;5.07;;
5553;SDS011;2800;49.528;8.666;2023-02-28T02:54:36;8.90;;;5.22;;
5553;SDS011;2800;49.528;8.666;2023-02-28T02:57:08;6.50;;;4.28;;
5553;SDS011;2800;49.528;8.666;2023-02-28T02:59:38;6.82;;;4.80;;
5553;SDS011;2800;49.528;8.666;2023-02-28T03:02:06;8.05;;;4.70;;
5553;SDS011;2800;49.528;8.666;2023-02-28T03:04:37;7.25;;;5.20;;
5553;SDS011;2800;49.528;8.666;2023-02-28T03:07:07;7.60;;;5.20;;
5553;SDS011;2800;49.528;8.666;2023-02-28T03:09:33;9.30;;;5.40;;
5553;SDS011;2800;49.528;8.666;2023-02-28T03:12:00;8.35;;;4.85;;
5553;SDS011;2800;49.528;8.666;2023-02-28T03:14:33;8.30;;;5.43;;
5553;SDS011;2800;49.528;8.666;2023-02-28T03:22:35;11.52;;;5.20;;
5553;SDS011;2800;49.528;8.666;2023-02-28T03:28:14;8.73;;;5.30;;
5553;SDS011;2800;49.528;8.666;2023-02-28T03:36:01;9.00;;;5.85;;
5553;SDS011;2800;49.528;8.666;2023-02-28T03:38:33;8.70;;;6.05;;
5553;SDS011;2800;49.528;8.666;2023-02-28T03:41:08;8.15;;;5.60;;
5553;SDS011;2800;49.528;8.666;2023-02-28T03:43:41;8.27;;;6.03;;
5553;SDS011;2800;49.528;8.666;2023-02-28T03:46:12;8.98;;;5.57;;
5553;SDS011;2800;49.528;8.666;2023-02-28T03:48:48;9.35;;;6.28;;
5553;SDS011;2800;49.528;8.666;2023-02-28T03:51:19;8.98;;;6.00;;
5553;SDS011;2800;49.528;8.666;2023-02-28T03:53:52;10.50;;;6.10;;
5553;SDS011;2800;49.528;8.666;2023-02-28T03:56:27;9.82;;;6.28;;
5553;SDS011;2800;49.528;8.666;2023-02-28T03:59:05;10.13;;;6.18;;
5553;SDS011;2800;49.528;8.666;2023-02-28T04:01:38;9.98;;;5.88;;
5553;SDS011;2800;49.528;8.666;2023-02-28T04:04:06;10.80;;;6.05;;
5553;SDS011;2800;49.528;8.666;2023-02-28T04:06:33;10.18;;;6.25;;
5553;SDS011;2800;49.528;8.666;2023-02-28T04:09:00;8.35;;;6.05;;
5553;SDS011;2800;49.528;8.666;2023-02-28T04:11:29;9.65;;;5.80;;
5553;SDS011;2800;49.528;8.666;2023-02-28T04:14:02;8.32;;;5.85;;
5553;SDS011;2800;49.528;8.666;2023-02-28T04:16:29;8.50;;;6.32;;
5553;SDS011;2800;49.528;8.666;2023-02-28T04:18:55;9.43;;;6.07;;
5553;SDS011;2800;49.528;8.666;2023-02-28T04:21:28;10.27;;;6.10;;
5553;SDS011;2800;49.528;8.666;2023-02-28T04:23:55;8.50;;;5.57;;
5553;SDS011;2800;49.528;8.666;2023-02-28T04:26:25;9.50;;;6.47;;
5553;SDS011;2800;49.528;8.666;2023-02-28T04:28:55;8.50;;;5.78;;
5553;SDS011;2800;49.528;8.666;2023-02-28T04:31:21;9.47;;;6.20;;
5553;SDS011;2800;49.528;8.666;2023-02-28T04:33:46;13.00;;;6.77;;
5553;SDS011;2800;49.528;8.666;2023-02-28T04:36:12;8.53;;;6.00;;
5553;SDS011;2800;49.528;8.666;2023-02-28T04:38:39;8.30;;;6.00;;
5553;SDS011;2800;49.528;8.666;2023-02-28T04:41:05;12.10;;;7.00;;
5553;SDS011;2800;49.528;8.666;2023-02-28T04:43:31;8.20;;;5.97;;
5553;SDS011;2800;49.528;8.666;2023-02-28T04:45:58;11.20;;;6.82;;
5553;SDS011;2800;49.528;8.666;2023-02-28T04:48:27;9.43;;;6.22;;
5553;SDS011;2800;49.528;8.666;2023-02-28T04:50:54;10.75;;;6.50;;
5553;SDS011;2800;49.528;8.666;2023-02-28T04:53:20;9.10;;;6.53;;
5553;SDS011;2800;49.528;8.666;2023-02-28T04:55:46;9.75;;;6.10;;
5553;SDS011;2800;49.528;8.666;2023-02-28T04:58:12;8.07;;;5.70;;
5553;SDS011;2800;49.528;8.666;2023-02-28T05:00:38;12.82;;;5.90;;
5553;SDS011;2800;49.528;8.666;2023-02-28T05:03:04;9.27;;;6.00;;
5553;SDS011;2800;49.528;8.666;2023-02-28T05:05:29;8.43;;;6.17;;
5553;SDS011;2800;49.528;8.666;2023-02-28T05:07:55;8.80;;;6.10;;
5553;SDS011;2800;49.528;8.666;2023-02-28T05:10:21;9.33;;;6.00;;
5553;SDS011;2800;49.528;8.666;2023-02-28T05:12:48;9.05;;;5.55;;
5553;SDS011;2800;49.528;8.666;2023-02-28T05:15:14;8.90;;;6.27;;
5553;SDS011;2800;49.528;8.666;2023-02-28T05:17:40;8.10;;;5.85;;
5553;SDS011;2800;49.528;8.666;2023-02-28T05:20:07;10.35;;;6.30;;
5553;SDS011;2800;49.528;8.666;2023-02-28T05:22:37;10.98;;;6.15;;
5553;SDS011;2800;49.528;8.666;2023-02-28T05:25:03;7.53;;;5.40;;
5553;SDS011;2800;49.528;8.666;2023-02-28T05:27:29;9.77;;;6.03;;
5553;SDS011;2800;49.528;8.666;2023-02-28T05:29:55;10.73;;;5.93;;
5553;SDS011;2800;49.528;8.666;2023-02-28T05:32:21;8.10;;;5.60;;
5553;SDS011;2800;49.528;8.666;2023-02-28T05:34:47;7.83;;;5.17;;
5553;SDS011;2800;49.528;8.666;2023-02-28T05:37:12;9.37;;;6.90;;
5553;SDS011;2800;49.528;8.666;2023-02-28T05:39:38;9.90;;;6.45;;
5553;SDS011;2800;49.528;8.666;2023-02-28T05:42:04;10.80;;;6.00;;
5553;SDS011;2800;49.528;8.666;2023-02-28T05:44:30;8.60;;;6.07;;
5553;SDS011;2800;49.528;8.666;2023-02-28T05:46:55;11.77;;;6.43;;
5553;SDS011;2800;49.528;8.666;2023-02-28T05:49:21;9.83;;;6.33;;
5553;SDS011;2800;49.528;8.666;2023-02-28T05:51:47;10.20;;;7.00;;
5553;SDS011;2800;49.528;8.666;2023-02-28T05:54:12;10.97;;;6.43;;
5553;SDS011;2800;49.528;8.666;2023-02-28T05:56:38;8.23;;;6.03;;
5553;SDS011;2800;49.528;8.666;2023-02-28T05:59:05;11.13;;;6.65;;
5553;SDS011;2800;49.528;8.666;2023-02-28T06:01:40;11.95;;;7.55;;
5553;SDS011;2800;49.528;8.666;2023-02-28T06:04:12;36.45;;;23.67;;
5553;SDS011;2800;49.528;8.666;2023-02-28T06:06:39;10.15;;;7.22;;
5553;SDS011;2800;49.528;8.666;2023-02-28T06:09:05;8.20;;;5.70;;
5553;SDS011;2800;49.528;8.666;2023-02-28T06:11:31;9.53;;;6.40;;
5553;SDS011;2800;49.528;8.666;2023-02-28T06:13:59;10.43;;;6.55;;
5553;SDS011;2800;49.528;8.666;2023-02-28T06:16:26;9.77;;;7.10;;
5553;SDS011;2800;49.528;8.666;2023-02-28T06:18:52;12.43;;;7.05;;
5553;SDS011;2800;49.528;8.666;2023-02-28T06:21:21;22.75;;;10.85;;
5553;SDS011;2800;49.528;8.666;2023-02-28T06:23:47;14.02;;;7.50;;
5553;SDS011;2800;49.528;8.666;2023-02-28T06:26:12;11.50;;;6.63;;
5553;SDS011;2800;49.528;8.666;2023-02-28T06:28:38;11.97;;;6.80;;
5553;SDS011;2800;49.528;8.666;2023-02-28T06:31:08;9.43;;;6.00;;
5553;SDS011;2800;49.528;8.666;2023-02-28T06:33:35;9.75;;;6.75;;
5553;SDS011;2800;49.528;8.666;2023-02-28T06:36:02;8.90;;;6.35;;
5553;SDS011;2800;49.528;8.666;2023-02-28T06:38:28;9.63;;;6.43;;
5553;SDS011;2800;49.528;8.666;2023-02-28T06:40:55;11.47;;;6.40;;
5553;SDS011;2800;49.528;8.666;2023-02-28T06:43:21;12.05;;;6.25;;
5553;SDS011;2800;49.528;8.666;2023-02-28T06:45:47;12.20;;;6.78;;
5553;SDS011;2800;49.528;8.666;2023-02-28T06:48:13;10.50;;;7.07;;
5553;SDS011;2800;49.528;8.666;2023-02-28T06:50:38;19.67;;;12.33;;
5553;SDS011;2800;49.528;8.666;2023-02-28T06:53:04;12.03;;;7.97;;
5553;SDS011;2800;49.528;8.666;2023-02-28T06:55:30;11.75;;;7.30;;
5553;SDS011;2800;49.528;8.666;2023-02-28T06:57:56;11.10;;;7.37;;
5553;SDS011;2800;49.528;8.666;2023-02-28T07:00:22;9.63;;;6.88;;
5553;SDS011;2800;49.528;8.666;2023-02-28T07:02:48;12.10;;;7.07;;
5553;SDS011;2800;49.528;8.666;2023-02-28T07:05:13;10.80;;;6.83;;
5553;SDS011;2800;49.528;8.666;2023-02-28T07:07:39;15.17;;;7.20;;
5553;SDS011;2800;49.528;8.666;2023-02-28T07:10:08;10.15;;;7.00;;
5553;SDS011;2800;49.528;8.666;2023-02-28T07:12:39;9.38;;;6.50;;
5553;SDS011;2800;49.528;8.666;2023-02-28T07:15:05;12.63;;;7.00;;
5553;SDS011;2800;49.528;8.666;2023-02-28T07:17:31;9.00;;;6.70;;
5553;SDS011;2800;49.528;8.666;2023-02-28T07:19:56;9.90;;;6.17;;
5553;SDS011;2800;49.528;8.666;2023-02-28T07:22:22;9.17;;;6.30;;
5553;SDS011;2800;49.528;8.666;2023-02-28T07:24:47;16.80;;;12.33;;
5553;SDS011;2800;49.528;8.666;2023-02-28T07:27:13;8.23;;;6.00;;
5553;SDS011;2800;49.528;8.666;2023-02-28T07:29:48;9.75;;;6.65;;
5553;SDS011;2800;49.528;8.666;2023-02-28T07:32:14;12.20;;;7.50;;
5553;SDS011;2800;49.528;8.666;2023-02-28T07:34:40;9.63;;;7.20;;
5553;SDS011;2800;49.528;8.666;2023-02-28T07:37:05;9.10;;;6.80;;
5553;SDS011;2800;49.528;8.666;2023-02-28T07:39:31;10.07;;;7.23;;
5553;SDS011;2800;49.528;8.666;2023-02-28T07:41:56;15.53;;;10.20;;
5553;SDS011;2800;49.528;8.666;2023-02-28T07:44:22;12.03;;;6.63;;
5553;SDS011;2800;49.528;8.666;2023-02-28T07:46:47;11.97;;;6.40;;
5553;SDS011;2800;49.528;8.666;2023-02-28T07:49:13;9.80;;;6.90;;
5553;SDS011;2800;49.528;8.666;2023-02-28T07:51:38;10.33;;;6.87;;
5553;SDS011;2800;49.528;8.666;2023-02-28T07:54:04;10.60;;;6.97;;
5553;SDS011;2800;49.528;8.666;2023-02-28T07:56:30;9.43;;;6.70;;
5553;SDS011;2800;49.528;8.666;2023-02-28T07:58:55;10.37;;;6.67;;
5553;SDS011;2800;49.528;8.666;2023-02-28T08:01:21;8.77;;;6.70;;
5553;SDS011;2800;49.528;8.666;2023-02-28T08:03:47;9.83;;;6.70;;
5553;SDS011;2800;49.528;8.666;2023-02-28T08:06:16;9.20;;;6.17;;
5553;SDS011;2800;49.528;8.666;2023-02-28T08:08:46;10.30;;;6.50;;
5553;SDS011;2800;49.528;8.666;2023-02-28T08:11:12;9.07;;;6.57;;
5553;SDS011;2800;49.528;8.666;2023-02-28T08:13:37;12.00;;;6.37;;
5553;SDS011;2800;49.528;8.666;2023-02-28T08:16:03;7.80;;;5.90;;
5553;SDS011;2800;49.528;8.666;2023-02-28T08:18:29;10.77;;;6.77;;
5553;SDS011;2800;49.528;8.666;2023-02-28T08:20:54;9.80;;;6.20;;
5553;SDS011;2800;49.528;8.666;2023-02-28T08:23:20;9.20;;;6.63;;
5553;SDS011;2800;49.528;8.666;2023-02-28T08:25:52;9.37;;;6.60;;
5553;SDS011;2800;49.528;8.666;2023-02-28T08:28:19;8.13;;;6.13;;
5553;SDS011;2800;49.528;8.666;2023-02-28T08:30:45;8.77;;;6.40;;
5553;SDS011;2800;49.528;8.666;2023-02-28T08:33:10;9.93;;;6.30;;
5553;SDS011;2800;49.528;8.666;2023-02-28T08:35:36;8.63;;;6.27;;
5553;SDS011;2800;49.528;8.666;2023-02-28T08:38:02;9.00;;;6.70;;
5553;SDS011;2800;49.528;8.666;2023-02-28T08:40:27;9.77;;;6.57;;
5553;SDS011;2800;49.528;8.666;2023-02-28T08:42:53;11.67;;;7.30;;
5553;SDS011;2800;49.528;8.666;2023-02-28T08:45:18;9.43;;;6.80;;
5553;SDS011;2800;49.528;8.666;2023-02-28T08:47:44;10.83;;;7.27;;
5553;SDS011;2800;49.528;8.666;2023-02-28T08:50:10;11.53;;;6.87;;
5553;SDS011;2800;49.528;8.666;2023-02-28T08:52:35;9.10;;;6.33;;
5553;SDS011;2800;49.528;8.666;2023-02-28T08:55:01;10.93;;;6.47;;
5553;SDS011;2800;49.528;8.666;2023-02-28T08:57:26;10.03;;;7.23;;
5553;SDS011;2800;49.528;8.666;2023-02-28T08:59:52;8.77;;;6.60;;
5553;SDS011;2800;49.528;8.666;2023-02-28T09:02:17;8.30;;;6.40;;
5553;SDS011;2800;49.528;8.666;2023-02-28T09:04:43;10.20;;;7.37;;
5553;SDS011;2800;49.528;8.666;2023-02-28T09:07:12;9.57;;;7.37;;
5553;SDS011;2800;49.528;8.666;2023-02-28T09:09:37;9.93;;;7.50;;
5553;SDS011;2800;49.528;8.666;2023-02-28T09:12:18;10.00;;;6.90;;
5553;SDS011;2800;49.528;8.666;2023-02-28T09:14:44;10.13;;;6.73;;
5553;SDS011;2800;49.528;8.666;2023-02-28T09:17:10;10.10;;;7.10;;
5553;SDS011;2800;49.528;8.666;2023-02-28T09:19:35;9.63;;;7.10;;
5553;SDS011;2800;49.528;8.666;2023-02-28T09:22:01;10.17;;;6.27;;
5553;SDS011;2800;49.528;8.666;2023-02-28T09:24:27;11.90;;;7.53;;
5553;SDS011;2800;49.528;8.666;2023-02-28T09:26:53;9.40;;;6.50;;
5553;SDS011;2800;49.528;8.666;2023-02-28T09:29:18;9.00;;;7.00;;
5553;SDS011;2800;49.528;8.666;2023-02-28T09:31:44;15.43;;;6.87;;
5553;SDS011;2800;49.528;8.666;2023-02-28T09:34:10;12.60;;;7.70;;
5553;SDS011;2800;49.528;8.666;2023-02-28T09:36:35;8.50;;;6.10;;
5553;SDS011;2800;49.528;8.666;2023-02-28T09:39:04;9.87;;;6.50;;
5553;SDS011;2800;49.528;8.666;2023-02-28T09:41:32;8.73;;;6.60;;
5553;SDS011;2800;49.528;8.666;2023-02-28T09:44:05;8.63;;;6.37;;
5553;SDS011;2800;49.528;8.666;2023-02-28T09:49:05;9.43;;;7.00;;
5553;SDS011;2800;49.528;8.666;2023-02-28T09:54:51;10.53;;;7.30;;
5553;SDS011;2800;49.528;8.666;2023-02-28T10:04:54;11.20;;;7.10;;
5553;SDS011;2800;49.528;8.666;2023-02-28T10:10:34;9.70;;;7.10;;
5553;SDS011;2800;49.528;8.666;2023-02-28T10:16:16;9.87;;;7.10;;
5553;SDS011;2800;49.528;8.666;2023-02-28T10:18:49;9.90;;;7.33;;
5553;SDS011;2800;49.528;8.666;2023-02-28T10:21:34;12.53;;;6.30;;
5553;SDS011;2800;49.528;8.666;2023-02-28T10:24:03;9.37;;;6.77;;
5553;SDS011;2800;49.528;8.666;2023-02-28T10:26:41;9.53;;;6.63;;
5553;SDS011;2800;49.528;8.666;2023-02-28T10:29:10;10.53;;;6.97;;
5553;SDS011;2800;49.528;8.666;2023-02-28T10:31:35;8.97;;;6.80;;
5553;SDS011;2800;49.528;8.666;2023-02-28T10:34:01;9.90;;;7.67;;
5553;SDS011;2800;49.528;8.666;2023-02-28T10:36:29;9.90;;;7.70;;
5553;SDS011;2800;49.528;8.666;2023-02-28T10:38:54;10.80;;;7.50;;
5553;SDS011;2800;49.528;8.666;2023-02-28T10:41:30;11.20;;;7.20;;
5553;SDS011;2800;49.528;8.666;2023-02-28T10:44:12;9.57;;;7.00;;
5553;SDS011;2800;49.528;8.666;2023-02-28T10:46:48;13.90;;;6.73;;
5553;SDS011;2800;49.528;8.666;2023-02-28T10:49:27;8.70;;;6.97;;
5553;SDS011;2800;49.528;8.666;2023-02-28T10:51:55;10.47;;;7.47;;
5553;SDS011;2800;49.528;8.666;2023-02-28T10:54:35;15.27;;;11.60;;
5553;SDS011;2800;49.528;8.666;2023-02-28T10:57:22;8.30;;;6.97;;
5553;SDS011;2800;49.528;8.666;2023-02-28T10:59:51;11.70;;;8.30;;
5553;SDS011;2800;49.528;8.666;2023-02-28T11:02:31;11.40;;;8.23;;
5553;SDS011;2800;49.528;8.666;2023-02-28T11:04:59;10.70;;;7.87;;
5553;SDS011;2800;49.528;8.666;2023-02-28T11:07:25;8.67;;;7.37;;
5553;SDS011;2800;49.528;8.666;2023-02-28T11:09:53;12.53;;;9.17;;
5553;SDS011;2800;49.528;8.666;2023-02-28T11:12:21;13.50;;;9.87;;
5553;SDS011;2800;49.528;8.666;2023-02-28T11:14:54;10.07;;;8.20;;
5553;SDS011;2800;49.528;8.666;2023-02-28T11:17:23;13.53;;;9.90;;
5553;SDS011;2800;49.528;8.666;2023-02-28T11:20:00;11.30;;;8.80;;
5553;SDS011;2800;49.528;8.666;2023-02-28T11:22:29;10.73;;;8.60;;
5553;SDS011;2800;49.528;8.666;2023-02-28T11:25:02;10.80;;;8.33;;
5553;SDS011;2800;49.528;8.666;2023-02-28T11:27:44;10.00;;;7.80;;
5553;SDS011;2800;49.528;8.666;2023-02-28T11:30:33;10.10;;;7.53;;
5553;SDS011;2800;49.528;8.666;2023-02-28T11:33:21;13.53;;;9.50;;
5553;SDS011;2800;49.528;8.666;2023-02-28T11:36:00;10.63;;;8.40;;
5553;SDS011;2800;49.528;8.666;2023-02-28T11:38:28;11.93;;;8.50;;
5553;SDS011;2800;49.528;8.666;2023-02-28T11:46:47;16.50;;;9.30;;
5553;SDS011;2800;49.528;8.666;2023-02-28T11:51:54;13.40;;;9.60;;
5553;SDS011;2800;49.528;8.666;2023-02-28T11:54:43;9.80;;;8.30;;
5553;SDS011;2800;49.528;8.666;2023-02-28T12:00:12;12.47;;;9.43;;
5553;SDS011;2800;49.528;8.666;2023-02-28T12:05:44;9.70;;;7.07;;
5553;SDS011;2800;49.528;8.666;2023-02-28T12:11:14;12.73;;;8.23;;
5553;SDS011;2800;49.528;8.666;2023-02-28T12:16:52;11.53;;;8.37;;
5553;SDS011;2800;49.528;8.666;2023-02-28T12:22:32;11.80;;;8.57;;
5553;SDS011;2800;49.528;8.666;2023-02-28T12:25:33;11.70;;;8.47;;
5553;SDS011;2800;49.528;8.666;2023-02-28T12:28:14;10.13;;;8.67;;
5553;SDS011;2800;49.528;8.666;2023-02-28T12:30:54;12.43;;;9.00;;
5553;SDS011;2800;49.528;8.666;2023-02-28T12:33:26;11.40;;;7.80;;
5553;SDS011;2800;49.528;8.666;2023-02-28T12:35:58;11.60;;;8.43;;
5553;SDS011;2800;49.528;8.666;2023-02-28T12:38:27;15.63;;;11.27;;
5553;SDS011;2800;49.528;8.666;2023-02-28T12:41:00;15.53;;;10.47;;
5553;SDS011;2800;49.528;8.666;2023-02-28T12:43:37;15.97;;;10.67;;
5553;SDS011;2800;49.528;8.666;2023-02-28T12:46:08;17.50;;;12.40;;
5553;SDS011;2800;49.528;8.666;2023-02-28T12:48:47;14.30;;;10.20;;
5553;SDS011;2800;49.528;8.666;2023-02-28T12:51:17;18.70;;;13.30;;
5553;SDS011;2800;49.528;8.666;2023-02-28T12:53:53;17.97;;;11.90;;
5553;SDS011;2800;49.528;8.666;2023-02-28T12:58:50;13.93;;;10.47;;
5553;SDS011;2800;49.528;8.666;2023-02-28T13:09:33;11.23;;;8.40;;
5553;SDS011;2800;49.528;8.666;2023-02-28T13:11:58;10.13;;;7.70;;
5553;SDS011;2800;49.528;8.666;2023-02-28T13:14:35;10.47;;;7.90;;
5553;SDS011;2800;49.528;8.666;2023-02-28T13:17:03;11.30;;;8.47;;
5553;SDS011;2800;49.528;8.666;2023-02-28T13:19:38;11.47;;;8.27;;
5553;SDS011;2800;49.528;8.666;2023-02-28T13:22:46;12.33;;;8.20;;
5553;SDS011;2800;49.528;8.666;2023-02-28T13:25:55;11.27;;;8.73;;
5553;SDS011;2800;49.528;8.666;2023-02-28T13:28:03;15.53;;;11.80;;
5553;SDS011;2800;49.528;8.666;2023-02-28T13:38:47;13.33;;;9.77;;
5553;SDS011;2800;49.528;8.666;2023-02-28T13:51:50;11.93;;;9.00;;
5553;SDS011;2800;49.528;8.666;2023-02-28T13:57:08;13.50;;;9.87;;
5553;SDS011;2800;49.528;8.666;2023-02-28T14:03:03;12.00;;;9.40;;
5553;SDS011;2800;49.528;8.666;2023-02-28T14:05:40;12.30;;;9.00;;
5553;SDS011;2800;49.528;8.666;2023-02-28T14:08:17;10.90;;;9.13;;
5553;SDS011;2800;49.528;8.666;2023-02-28T14:10:48;14.00;;;8.13;;
5553;SDS011;2800;49.528;8.666;2023-02-28T14:16:13;10.50;;;8.63;;
5553;SDS011;2800;49.528;8.666;2023-02-28T14:19:31;12.50;;;8.80;;
5553;SDS011;2800;49.528;8.666;2023-02-28T14:21:37;10.07;;;8.00;;
5553;SDS011;2800;49.528;8.666;2023-02-28T14:24:13;11.33;;;8.40;;
5553;SDS011;2800;49.528;8.666;2023-02-28T14:33:22;12.47;;;8.83;;
5553;SDS011;2800;49.528;8.666;2023-02-28T14:38:47;11.03;;;8.00;;
5553;SDS011;2800;49.528;8.666;2023-02-28T14:41:22;16.60;;;11.70;;
5553;SDS011;2800;49.528;8.666;2023-02-28T14:46:50;12.63;;;9.30;;
5553;SDS011;2800;49.528;8.666;2023-02-28T14:49:20;12.57;;;9.00;;
5553;SDS011;2800;49.528;8.666;2023-02-28T14:52:02;10.60;;;8.30;;
5553;SDS011;2800;49.528;8.666;2023-02-28T14:54:34;13.47;;;8.90;;
5553;SDS011;2800;49.528;8.666;2023-02-28T14:57:01;11.50;;;8.67;;
5553;SDS011;2800;49.528;8.666;2023-02-28T14:59:32;13.20;;;8.43;;
5553;SDS011;2800;49.528;8.666;2023-02-28T15:04:54;17.00;;;10.37;;
5553;SDS011;2800;49.528;8.666;2023-02-28T15:07:24;13.30;;;10.20;;
5553;SDS011;2800;49.528;8.666;2023-02-28T15:12:41;15.93;;;9.40;;
5553;SDS011;2800;49.528;8.666;2023-02-28T15:15:17;15.00;;;10.67;;
5553;SDS011;2800;49.528;8.666;2023-02-28T15:17:45;12.07;;;8.30;;
5553;SDS011;2800;49.528;8.666;2023-02-28T15:20:15;9.87;;;8.30;;
5553;SDS011;2800;49.528;8.666;2023-02-28T15:22:41;12.97;;;9.90;;
5553;SDS011;2800;49.528;8.666;2023-02-28T15:25:09;15.43;;;10.97;;
5553;SDS011;2800;49.528;8.666;2023-02-28T15:27:41;12.10;;;9.67;;
5553;SDS011;2800;49.528;8.666;2023-02-28T15:30:18;15.10;;;9.33;;
5553;SDS011;2800;49.528;8.666;2023-02-28T15:35:38;10.80;;;8.90;;
5553;SDS011;2800;49.528;8.666;2023-02-28T15:40:56;13.13;;;8.57;;
5553;SDS011;2800;49.528;8.666;2023-02-28T15:43:24;11.63;;;8.70;;
5553;SDS011;2800;49.528;8.666;2023-02-28T15:48:32;12.70;;;8.93;;
5553;SDS011;2800;49.528;8.666;2023-02-28T15:51:05;11.30;;;8.20;;
5553;SDS011;2800;49.528;8.666;2023-02-28T15:53:37;12.60;;;8.53;;
5553;SDS011;2800;49.528;8.666;2023-02-28T15:56:21;11.20;;;8.63;;
5553;SDS011;2800;49.528;8.666;2023-02-28T15:58:49;21.40;;;12.27;;
5553;SDS011;2800;49.528;8.666;2023-02-28T16:01:20;15.03;;;10.00;;
5553;SDS011;2800;49.528;8.666;2023-02-28T16:03:57;12.50;;;8.93;;
5553;SDS011;2800;49.528;8.666;2023-02-28T16:06:30;12.37;;;9.83;;
5553;SDS011;2800;49.528;8.666;2023-02-28T16:09:00;15.17;;;10.70;;
5553;SDS011;2800;49.528;8.666;2023-02-28T16:11:26;12.03;;;8.60;;
5553;SDS011;2800;49.528;8.666;2023-02-28T16:13:52;20.63;;;14.70;;
5553;SDS011;2800;49.528;8.666;2023-02-28T16:16:19;16.70;;;11.40;;
5553;SDS011;2800;49.528;8.666;2023-02-28T16:18:47;14.40;;;9.87;;
5553;SDS011;2800;49.528;8.666;2023-02-28T16:21:13;11.70;;;9.33;;
5553;SDS011;2800;49.528;8.666;2023-02-28T16:23:39;13.50;;;9.93;;
5553;SDS011;2800;49.528;8.666;2023-02-28T16:26:05;17.07;;;12.73;;
5553;SDS011;2800;49.528;8.666;2023-02-28T16:28:32;14.40;;;10.50;;
5553;SDS011;2800;49.528;8.666;2023-02-28T16:31:00;22.43;;;13.63;;
5553;SDS011;2800;49.528;8.666;2023-02-28T16:33:30;12.93;;;9.93;;
5553;SDS011;2800;49.528;8.666;2023-02-28T16:35:56;15.33;;;10.70;;
5553;SDS011;2800;49.528;8.666;2023-02-28T16:38:22;14.47;;;11.00;;
5553;SDS011;2800;49.528;8.666;2023-02-28T16:40:49;14.40;;;10.43;;
5553;SDS011;2800;49.528;8.666;2023-02-28T16:43:17;18.03;;;13.80;;
5553;SDS011;2800;49.528;8.666;2023-02-28T16:45:47;18.93;;;14.03;;
5553;SDS011;2800;49.528;8.666;2023-02-28T16:48:13;24.67;;;20.07;;
5553;SDS011;2800;49.528;8.666;2023-02-28T16:50:40;14.30;;;11.93;;
5553;SDS011;2800;49.528;8.666;2023-02-28T16:53:07;14.67;;;12.20;;
5553;SDS011;2800;49.528;8.666;2023-02-28T16:55:33;16.00;;;12.27;;
5553;SDS011;2800;49.528;8.666;2023-02-28T16:58:00;15.30;;;12.00;;
5553;SDS011;2800;49.528;8.666;2023-02-28T17:00:26;13.90;;;10.90;;
5553;SDS011;2800;49.528;8.666;2023-02-28T17:02:53;15.90;;;10.90;;
5553;SDS011;2800;49.528;8.666;2023-02-28T17:05:19;12.47;;;10.07;;
5553;SDS011;2800;49.528;8.666;2023-02-28T17:07:46;16.20;;;12.97;;
5553;SDS011;2800;49.528;8.666;2023-02-28T17:10:14;32.20;;;27.70;;
5553;SDS011;2800;49.528;8.666;2023-02-28T17:12:42;18.97;;;15.33;;
5553;SDS011;2800;49.528;8.666;2023-02-28T17:15:08;18.20;;;13.90;;
5553;SDS011;2800;49.528;8.666;2023-02-28T17:17:35;16.30;;;12.47;;
5553;SDS011;2800;49.528;8.666;2023-02-28T17:20:01;14.07;;;11.00;;
5553;SDS011;2800;49.528;8.666;2023-02-28T17:22:27;16.07;;;12.10;;
5553;SDS011;2800;49.528;8.666;2023-02-28T17:24:53;16.37;;;12.07;;
5553;SDS011;2800;49.528;8.666;2023-02-28T17:27:22;20.53;;;12.47;;
5553;SDS011;2800;49.528;8.666;2023-02-28T17:29:48;22.27;;;16.23;;